KENV/ENV METAR and TAF weather

Enter ICAO airport designator
Station Type Date Time Source
KENV METAR 2024/04/18 06:56 UTC NOAA

KENV 180656Z AUTO 36004KT 10SM CLR 06/M13 A3021 RMK AO2 SLP228 T00561128 401780044


Station Type Date Time Source
KENV Decoded METAR 2024/04/18 06:56 UTC NOAA

Wendover / Air Force Auxillary Field, UT, United States (KENV) 40-44N 114-02W 1292M
Apr 18, 2024 - 02:56 AM EDT / 2024.04.18 0656 UTC
Wind: from the N (360 degrees) at 5 MPH (4 KT):0
Visibility: 10 mile(s):0
Sky conditions: clear
Temperature: 42.1 F (5.6 C)
Dew Point: 9.0 F (-12.8 C)
Relative Humidity: 25%
Pressure (altimeter): 30.21 in. Hg (1023 hPa)
ob: KENV 180656Z AUTO 36004KT 10SM CLR 06/M13 A3021 RMK AO2 SLP228 T00561128 401780044
cycle: 7

Station Type Date Time Source
KENV TAF 2024/04/18 07:27 UTC NOAA